createdAt,value
2019-01-10T00:02:30.176Z,24.43
2019-01-10T00:05:00.291Z,32.33
2019-01-10T00:07:30.420Z,25.23
2019-01-10T00:10:00.536Z,30.67
2019-01-10T00:12:39.236Z,31.30
2019-01-10T00:15:01.148Z,35.73
2019-01-10T00:17:31.309Z,30.27
2019-01-10T00:20:01.527Z,28.70
2019-01-10T00:22:31.679Z,25.70
2019-01-10T00:25:01.797Z,23.60
2019-01-10T00:27:31.919Z,36.30
2019-01-10T00:30:02.019Z,26.57
2019-01-10T00:32:32.161Z,32.23
2019-01-10T00:35:02.358Z,33.33
2019-01-10T00:37:31.895Z,32.73
2019-01-10T00:40:01.962Z,29.97
2019-01-10T00:42:32.143Z,28.43
2019-01-10T00:45:02.311Z,34.17
2019-01-10T00:47:32.448Z,28.47
2019-01-10T00:50:02.642Z,23.33
2019-01-10T00:52:32.783Z,25.03
2019-01-10T00:55:02.900Z,33.10
2019-01-10T00:57:33.049Z,27.17
2019-01-10T01:00:03.241Z,28.67
2019-01-10T01:02:33.384Z,34.57
2019-01-10T01:05:03.649Z,26.10
2019-01-10T01:07:33.852Z,31.10
2019-01-10T01:10:04.060Z,33.27
2019-01-10T01:13:58.180Z,22.87
2019-01-10T01:16:28.500Z,20.50
2019-01-10T01:18:58.618Z,26.80
2019-01-10T01:21:28.715Z,28.30
2019-01-10T01:23:58.814Z,25.17
2019-01-10T01:26:29.312Z,25.47
2019-01-10T01:28:59.472Z,25.27
2019-01-10T01:31:29.547Z,28.80
2019-01-10T01:33:59.668Z,23.33
2019-01-10T01:36:29.784Z,21.33
2019-01-10T01:38:59.903Z,22.03
2019-01-10T01:42:54.234Z,26.37
2019-01-10T01:45:24.339Z,26.53
2019-01-10T01:47:54.469Z,21.93
2019-01-10T01:50:25.263Z,27.80
2019-01-10T01:52:55.708Z,24.00
2019-01-10T01:55:25.890Z,28.17
2019-01-10T01:57:55.975Z,26.50
2019-01-10T02:00:26.240Z,29.03
2019-01-10T02:02:56.361Z,25.73
2019-01-10T02:05:26.425Z,29.60
2019-01-10T02:07:56.424Z,32.07
2019-01-10T02:10:28.539Z,25.77
2019-01-10T02:12:58.751Z,27.03
2019-01-10T02:15:28.883Z,28.03
2019-01-10T02:17:58.996Z,30.40
2019-01-10T02:20:29.227Z,26.73
2019-01-10T02:22:59.346Z,27.60
2019-01-10T02:25:29.599Z,28.53
2019-01-10T02:27:59.741Z,25.00
2019-01-10T02:30:29.897Z,25.97
2019-01-10T02:32:59.909Z,29.17
2019-01-10T02:35:30.013Z,29.90
2019-01-10T02:38:00.217Z,26.30
2019-01-10T02:40:30.330Z,28.63
2019-01-10T02:43:00.445Z,26.50
2019-01-10T02:45:30.578Z,20.93
2019-01-10T02:48:01.031Z,24.07
2019-01-10T02:50:31.164Z,28.37
2019-01-10T02:53:01.369Z,25.23
2019-01-10T02:56:55.539Z,21.73
2019-01-10T02:59:25.640Z,28.33
2019-01-10T03:01:55.752Z,24.83
2019-01-10T03:04:25.906Z,26.13
2019-01-10T03:06:56.117Z,29.80
2019-01-10T03:09:26.225Z,25.47
2019-01-10T03:11:56.308Z,28.27
2019-01-10T03:14:26.392Z,28.57
2019-01-10T03:16:56.493Z,27.43
2019-01-10T03:19:26.604Z,26.80
2019-01-10T03:21:56.741Z,29.10
2019-01-10T03:24:26.817Z,27.57
2019-01-10T03:26:56.894Z,28.53
2019-01-10T03:29:27.024Z,31.23
2019-01-10T03:31:57.229Z,30.27
2019-01-10T03:34:27.364Z,34.97
2019-01-10T03:36:57.516Z,28.93
2019-01-10T03:39:27.636Z,30.10
2019-01-10T03:41:57.773Z,34.03
2019-01-10T03:44:34.098Z,28.97
2019-01-10T03:46:58.035Z,28.37
2019-01-10T03:49:28.112Z,27.87
2019-01-10T03:51:58.238Z,30.07
2019-01-10T03:54:28.332Z,28.63
2019-01-10T03:56:58.452Z,31.43
2019-01-10T03:59:28.559Z,38.30
2019-01-10T04:01:58.708Z,32.87
2019-01-10T04:04:28.812Z,26.87
2019-01-10T04:06:58.903Z,27.67
2019-01-10T04:09:29.827Z,31.43
2019-01-10T04:11:59.947Z,31.37
2019-01-10T04:14:30.061Z,28.97
2019-01-10T04:17:00.180Z,29.33
2019-01-10T04:19:30.259Z,23.07
2019-01-10T04:22:00.429Z,27.50
2019-01-10T04:24:30.537Z,28.30
2019-01-10T04:27:00.672Z,23.53
2019-01-10T04:29:30.743Z,28.83
2019-01-10T04:32:00.847Z,27.40
2019-01-10T04:34:30.923Z,25.07
2019-01-10T04:37:01.116Z,28.53
2019-01-10T04:39:31.231Z,26.20
2019-01-10T04:42:01.397Z,21.70
2019-01-10T04:44:31.816Z,28.53
2019-01-10T04:47:01.965Z,26.30
2019-01-10T04:49:32.052Z,28.67
2019-01-10T04:52:02.103Z,30.17
2019-01-10T04:54:32.208Z,32.43
2019-01-10T04:57:02.394Z,25.17
2019-01-10T04:59:32.514Z,32.90
2019-01-10T05:02:02.638Z,24.03
2019-01-10T05:04:32.997Z,23.07
2019-01-10T05:07:03.182Z,29.50
2019-01-10T05:09:33.251Z,23.30
2019-01-10T05:12:03.447Z,29.23
2019-01-10T05:14:33.596Z,30.67
2019-01-10T05:17:03.719Z,33.50
2019-01-10T05:19:33.715Z,22.90
2019-01-10T05:22:03.866Z,22.27
2019-01-10T05:24:33.395Z,28.70
2019-01-10T05:27:03.465Z,27.90
2019-01-10T05:29:33.584Z,33.13
2019-01-10T05:32:03.737Z,20.90
2019-01-10T05:34:33.808Z,24.90
2019-01-10T05:37:05.924Z,28.80
2019-01-10T05:39:34.096Z,29.27
2019-01-10T05:42:04.327Z,24.27
2019-01-10T05:44:34.456Z,24.73
2019-01-10T05:47:04.586Z,26.07
2019-01-10T05:49:34.702Z,31.67
2019-01-10T05:52:05.249Z,31.27
2019-01-10T05:54:35.360Z,21.47
2019-01-10T05:57:05.488Z,30.20
2019-01-10T05:59:35.852Z,28.13
2019-01-10T06:02:05.992Z,25.63
2019-01-10T06:04:36.105Z,31.27
2019-01-10T06:07:06.626Z,28.00
2019-01-10T06:09:36.673Z,29.47
2019-01-10T06:12:06.848Z,30.47
2019-01-10T06:14:36.877Z,27.33
2019-01-10T06:17:06.979Z,13.47
2019-01-10T06:19:37.067Z,32.03
2019-01-10T06:22:07.230Z,31.40
2019-01-10T06:24:36.732Z,30.57
2019-01-10T06:27:06.732Z,30.80
2019-01-10T06:29:36.808Z,22.93
2019-01-10T06:32:06.941Z,29.77
2019-01-10T06:34:37.063Z,25.07
2019-01-10T06:37:07.188Z,26.40
2019-01-10T06:39:37.194Z,20.87
2019-01-10T06:42:07.328Z,23.10
2019-01-10T06:44:44.496Z,24.23
2019-01-10T06:47:07.613Z,22.57
2019-01-10T06:49:37.699Z,19.47
2019-01-10T06:52:07.875Z,26.10
2019-01-10T06:54:37.966Z,27.90
2019-01-10T06:57:08.068Z,22.93
2019-01-10T06:59:38.176Z,17.20
2019-01-10T07:02:08.318Z,21.03
2019-01-10T07:04:38.320Z,23.63
2019-01-10T07:07:08.451Z,20.80
2019-01-10T07:09:38.564Z,22.10
2019-01-10T07:12:08.702Z,23.57
2019-01-10T07:14:38.808Z,22.47
2019-01-10T07:17:08.948Z,21.47
2019-01-10T07:19:45.478Z,20.47
2019-01-10T07:22:17.059Z,18.80
2019-01-10T07:24:52.068Z,14.67
2019-01-10T07:27:22.203Z,20.10
2019-01-10T07:29:56.438Z,16.43
2019-01-10T07:32:26.693Z,21.30
2019-01-10T07:35:01.938Z,19.10
2019-01-10T07:37:32.146Z,16.30
2019-01-10T07:40:02.203Z,17.50
2019-01-10T07:42:35.188Z,18.60
2019-01-10T07:45:10.725Z,18.23
2019-01-10T07:47:45.754Z,16.07
2019-01-10T07:50:16.298Z,17.00
2019-01-10T07:52:46.635Z,17.07
2019-01-10T07:55:16.723Z,18.17
2019-01-10T07:57:46.860Z,15.27
2019-01-10T08:00:18.006Z,16.77
2019-01-10T08:02:48.661Z,13.27
2019-01-10T08:05:18.813Z,14.00
2019-01-10T08:07:48.955Z,15.47
2019-01-10T08:10:19.074Z,18.20
2019-01-10T08:12:49.296Z,17.70
2019-01-10T08:15:21.019Z,11.47
2019-01-10T08:17:51.459Z,14.90
2019-01-10T08:20:21.985Z,15.17
2019-01-10T08:22:52.515Z,12.90
2019-01-10T08:25:22.786Z,12.70
2019-01-10T08:27:53.266Z,10.80
2019-01-10T08:30:25.226Z,15.47
2019-01-10T08:32:55.716Z,12.30
2019-01-10T08:36:51.790Z,12.10
2019-01-10T08:39:22.254Z,9.17
2019-01-10T08:41:52.871Z,14.30
2019-01-10T08:44:23.420Z,11.53
2019-01-10T08:46:53.701Z,9.77
2019-01-10T08:49:24.100Z,12.33
2019-01-10T08:51:53.791Z,10.00
2019-01-10T08:54:24.095Z,12.83
2019-01-10T08:56:54.520Z,11.93
2019-01-10T08:59:24.875Z,9.27
2019-01-10T09:01:55.407Z,12.30
2019-01-10T09:04:27.779Z,9.97
2019-01-10T09:06:58.343Z,12.60
2019-01-10T09:09:29.032Z,11.70
2019-01-10T09:11:59.391Z,11.80
2019-01-10T09:14:29.841Z,10.57
2019-01-10T09:17:00.141Z,12.53
2019-01-10T09:19:30.466Z,11.27
2019-01-10T09:22:00.531Z,16.07
2019-01-10T09:24:30.842Z,13.97
2019-01-10T09:27:01.273Z,16.77
2019-01-10T09:29:31.761Z,13.73
2019-01-10T09:32:02.031Z,11.97
2019-01-10T09:34:32.418Z,14.70
2019-01-10T09:37:03.894Z,12.00
2019-01-10T09:39:33.087Z,13.60
2019-01-10T09:42:03.285Z,14.90
2019-01-10T09:44:33.484Z,13.53
2019-01-10T09:47:03.875Z,16.00
2019-01-10T09:49:34.199Z,13.17
2019-01-10T09:52:04.729Z,12.73
2019-01-10T09:54:35.128Z,12.90
2019-01-10T09:57:05.673Z,16.03
2019-01-10T09:59:36.168Z,14.27
2019-01-10T10:02:06.368Z,16.23
2019-01-10T10:04:36.783Z,11.57
2019-01-10T10:07:06.939Z,12.87
2019-01-10T10:09:37.462Z,9.20
2019-01-10T10:12:07.632Z,15.50
2019-01-10T10:14:37.976Z,10.93
2019-01-10T10:17:08.416Z,13.57
2019-01-10T10:19:38.144Z,14.30
2019-01-10T10:22:08.365Z,18.17
2019-01-10T10:24:38.607Z,16.80
2019-01-10T10:27:09.015Z,13.07
2019-01-10T10:29:39.721Z,17.43
2019-01-10T10:32:09.936Z,13.90
2019-01-10T10:34:40.236Z,14.03
2019-01-10T10:37:10.624Z,14.17
2019-01-10T10:39:41.061Z,15.57
2019-01-10T10:42:11.466Z,13.07
2019-01-10T10:44:41.768Z,10.87
2019-01-10T10:47:12.125Z,11.63
2019-01-10T10:49:42.442Z,15.30
2019-01-10T10:52:12.660Z,16.27
2019-01-10T10:54:42.543Z,19.93
2019-01-10T10:57:12.710Z,16.67
2019-01-10T10:59:42.975Z,17.10
2019-01-10T11:02:13.388Z,13.57
2019-01-10T11:04:43.775Z,13.73
2019-01-10T11:07:14.125Z,18.30
2019-01-10T11:09:44.453Z,13.07
2019-01-10T11:12:14.776Z,16.10
2019-01-10T11:14:48.277Z,16.03
2019-01-10T11:17:15.588Z,19.83
2019-01-10T11:19:45.911Z,15.10
2019-01-10T11:22:16.247Z,19.63
2019-01-10T11:24:46.647Z,16.50
2019-01-10T11:27:16.937Z,22.40
2019-01-10T11:29:47.700Z,20.67
2019-01-10T11:32:18.056Z,21.07
2019-01-10T11:34:48.435Z,20.77
2019-01-10T11:37:18.768Z,12.97
2019-01-10T11:39:49.076Z,20.53
2019-01-10T11:42:19.609Z,18.73
2019-01-10T11:44:49.231Z,19.83
2019-01-10T11:47:19.384Z,20.47
2019-01-10T11:49:49.733Z,20.33
2019-01-10T11:52:20.000Z,18.10
2019-01-10T11:54:50.295Z,19.57
2019-01-10T11:57:21.292Z,20.43
2019-01-10T11:59:51.663Z,20.70
2019-01-10T12:02:21.984Z,18.17
2019-01-10T12:04:52.307Z,17.10
2019-01-10T12:07:22.616Z,21.57
2019-01-10T12:09:53.200Z,24.40
2019-01-10T12:12:23.513Z,18.17
2019-01-10T12:14:53.766Z,21.43
2019-01-10T12:17:24.024Z,22.23
2019-01-10T12:19:54.399Z,25.37
2019-01-10T12:22:24.739Z,27.20
2019-01-10T12:24:55.040Z,26.37
2019-01-10T12:27:25.355Z,13.80
2019-01-10T12:29:55.955Z,17.77
2019-01-10T12:32:26.339Z,20.47
2019-01-10T12:34:56.472Z,18.77
2019-01-10T12:37:26.724Z,19.07
2019-01-10T12:39:56.953Z,14.33
2019-01-10T12:42:27.275Z,21.30
2019-01-10T12:44:57.704Z,24.37
2019-01-10T12:47:28.125Z,18.83
2019-01-10T12:49:58.505Z,17.47
2019-01-10T12:52:35.060Z,16.77
2019-01-10T12:54:59.007Z,21.83
2019-01-10T12:57:29.271Z,26.33
2019-01-10T12:59:59.507Z,16.53
2019-01-10T13:02:29.817Z,15.93
2019-01-10T13:05:00.231Z,16.77
2019-01-10T13:07:30.508Z,12.43
2019-01-10T13:10:00.759Z,9.97
2019-01-10T13:12:31.012Z,16.07
2019-01-10T13:15:01.361Z,12.33
2019-01-10T13:17:31.660Z,18.67
2019-01-10T13:20:02.275Z,11.83
2019-01-10T13:22:32.618Z,10.87
2019-01-10T13:25:02.852Z,11.53
2019-01-10T13:27:33.979Z,12.77
2019-01-10T13:30:05.351Z,10.73
2019-01-10T13:32:35.578Z,9.57
2019-01-10T13:35:06.416Z,9.97
2019-01-10T13:37:36.667Z,10.33
2019-01-10T13:40:07.647Z,10.60
2019-01-10T13:42:37.872Z,8.87
2019-01-10T13:45:09.283Z,7.87
2019-01-10T13:47:39.755Z,8.87
2019-01-10T13:50:13.435Z,8.77
2019-01-10T13:52:43.215Z,10.57
2019-01-10T13:55:13.809Z,9.03
2019-01-10T13:57:44.220Z,12.87
2019-01-10T14:00:18.592Z,8.27
2019-01-10T14:02:48.959Z,14.10
2019-01-10T14:05:19.448Z,13.30
2019-01-10T14:07:49.988Z,14.20
2019-01-10T14:10:20.283Z,13.17
2019-01-10T14:12:50.456Z,12.50
2019-01-10T14:15:24.261Z,10.27
2019-01-10T14:17:54.649Z,12.33
2019-01-10T14:20:24.971Z,10.80
2019-01-10T14:22:54.699Z,10.77
2019-01-10T14:25:24.491Z,8.77
2019-01-10T14:27:59.329Z,6.73
2019-01-10T14:30:28.577Z,7.03
2019-01-10T14:32:59.184Z,11.53
2019-01-10T14:35:29.730Z,9.20
2019-01-10T14:38:00.139Z,10.00
2019-01-10T14:40:30.852Z,9.03
2019-01-10T14:43:01.137Z,10.10
2019-01-10T14:45:31.783Z,9.33
2019-01-10T14:48:02.253Z,8.50
2019-01-10T14:50:32.464Z,13.40
2019-01-10T14:53:02.717Z,13.73
2019-01-10T14:55:32.900Z,10.23
2019-01-10T14:58:03.320Z,8.87
2019-01-10T15:00:33.900Z,12.13
2019-01-10T15:03:04.288Z,9.77
2019-01-10T15:05:34.865Z,10.77
2019-01-10T15:08:05.167Z,9.87
2019-01-10T15:10:35.948Z,11.53
2019-01-10T15:13:06.330Z,7.00
2019-01-10T15:15:36.679Z,6.23
2019-01-10T15:18:07.303Z,5.13
2019-01-10T15:20:37.637Z,8.60
2019-01-10T15:23:08.064Z,6.67
2019-01-10T15:25:38.388Z,6.87
2019-01-10T15:28:08.724Z,8.23
2019-01-10T15:30:39.209Z,8.13
2019-01-10T15:33:09.532Z,8.93
2019-01-10T15:35:39.876Z,9.73
2019-01-10T15:38:13.877Z,10.87
2019-01-10T15:40:40.551Z,17.37
2019-01-10T15:43:11.063Z,19.57
2019-01-10T15:45:41.730Z,11.33
2019-01-10T15:48:12.089Z,9.13
2019-01-10T15:50:42.392Z,12.80
2019-01-10T15:53:12.740Z,10.03
2019-01-10T15:55:43.073Z,9.90
2019-01-10T15:58:13.287Z,6.67
2019-01-10T16:00:43.564Z,6.73
2019-01-10T16:03:14.004Z,11.60
2019-01-10T16:05:44.478Z,6.13
2019-01-10T16:08:14.721Z,9.07
2019-01-10T16:10:45.256Z,8.60
2019-01-10T16:13:15.536Z,10.33
2019-01-10T16:15:45.862Z,9.27
2019-01-10T16:18:16.183Z,9.50
2019-01-10T16:20:46.506Z,10.43
2019-01-10T16:23:16.691Z,9.50
2019-01-10T16:25:47.094Z,9.13
2019-01-10T16:28:17.414Z,13.03
2019-01-10T16:30:47.868Z,8.33
2019-01-10T16:33:18.168Z,8.27
2019-01-10T16:35:48.537Z,7.27
2019-01-10T16:38:18.819Z,13.00
2019-01-10T16:40:49.249Z,12.23
2019-01-10T16:43:19.561Z,10.63
2019-01-10T16:45:49.950Z,9.27
2019-01-10T16:51:53.848Z,9.23
2019-01-10T16:54:24.104Z,18.50
2019-01-10T16:56:55.292Z,10.93
2019-01-10T16:59:25.468Z,8.70
2019-01-10T17:01:55.920Z,9.17
2019-01-10T17:04:26.123Z,9.67
2019-01-10T17:06:56.395Z,7.27
2019-01-10T17:09:26.736Z,10.03
2019-01-10T17:11:57.045Z,9.20
2019-01-10T17:14:27.312Z,10.03
2019-01-10T17:16:57.637Z,8.53
2019-01-10T17:19:27.847Z,9.47
2019-01-10T17:21:58.257Z,9.63
2019-01-10T17:24:28.504Z,10.00
2019-01-10T17:26:58.832Z,19.07
2019-01-10T17:29:29.056Z,12.10
2019-01-10T17:31:59.728Z,7.00
2019-01-10T17:34:30.051Z,8.17
2019-01-10T17:37:00.400Z,7.53
2019-01-10T17:39:30.680Z,6.97
2019-01-10T17:42:01.080Z,8.60
2019-01-10T17:44:31.402Z,7.67
2019-01-10T17:47:01.680Z,7.67
2019-01-10T17:49:32.019Z,13.83
2019-01-10T17:52:02.502Z,9.37
2019-01-10T17:54:32.698Z,10.90
2019-01-10T17:57:02.995Z,7.70
2019-01-10T17:59:33.287Z,10.60
2019-01-10T18:02:03.591Z,9.20
2019-01-10T18:04:33.716Z,8.63
2019-01-10T18:07:04.132Z,8.07
2019-01-10T18:09:34.441Z,9.83
2019-01-10T18:12:04.782Z,8.70
2019-01-10T18:14:35.027Z,10.37
2019-01-10T18:17:05.396Z,12.53
2019-01-10T18:19:35.717Z,8.30
2019-01-10T18:22:06.209Z,11.20
2019-01-10T18:24:36.620Z,11.43
2019-01-10T18:27:07.008Z,8.97
2019-01-10T18:29:37.755Z,10.00
2019-01-10T18:32:07.840Z,7.70
2019-01-10T18:34:37.630Z,10.53
2019-01-10T18:37:07.944Z,8.80
2019-01-10T18:39:38.192Z,9.93
2019-01-10T18:42:08.576Z,10.40
2019-01-10T18:44:38.770Z,11.27
2019-01-10T18:47:09.056Z,11.03
2019-01-10T18:49:39.389Z,10.87
2019-01-10T18:52:09.679Z,11.67
2019-01-10T18:54:39.996Z,10.53
2019-01-10T18:57:10.508Z,10.17
2019-01-10T18:59:40.781Z,11.93
2019-01-10T19:02:11.163Z,10.03
2019-01-10T19:04:41.392Z,9.07
2019-01-10T19:07:11.788Z,7.87
2019-01-10T19:09:42.044Z,9.03
2019-01-10T19:12:12.410Z,10.57
2019-01-10T19:14:42.763Z,12.07
2019-01-10T19:17:13.115Z,12.70
2019-01-10T19:19:43.510Z,10.17
2019-01-10T19:22:13.775Z,9.30
2019-01-10T19:24:44.105Z,9.33
2019-01-10T19:27:14.412Z,10.40
2019-01-10T19:29:44.608Z,11.30
2019-01-10T19:32:16.359Z,12.57
2019-01-10T19:34:46.612Z,13.93
2019-01-10T19:37:17.055Z,10.07
2019-01-10T19:39:47.272Z,11.70
2019-01-10T19:42:17.599Z,18.00
2019-01-10T19:44:48.007Z,16.10
2019-01-10T19:47:18.302Z,14.20
2019-01-10T19:49:48.597Z,12.90
2019-01-10T19:52:18.879Z,13.40
2019-01-10T19:54:49.101Z,23.50
2019-01-10T19:57:19.340Z,13.33
2019-01-10T19:59:49.582Z,11.17
2019-01-10T20:02:19.293Z,17.13
2019-01-10T20:04:49.447Z,11.37
2019-01-10T20:07:20.166Z,13.20
2019-01-10T20:09:52.466Z,8.67
2019-01-10T20:12:22.800Z,10.80
2019-01-10T20:14:52.967Z,13.10
2019-01-10T20:17:23.300Z,14.13
2019-01-10T20:19:53.573Z,12.13
2019-01-10T20:22:23.829Z,9.17
2019-01-10T20:24:54.151Z,13.63
2019-01-10T20:27:24.588Z,10.20
2019-01-10T20:29:54.904Z,11.23
2019-01-10T20:32:25.116Z,12.47
2019-01-10T20:34:55.712Z,15.33
2019-01-10T20:37:25.959Z,11.50
2019-01-10T20:39:56.279Z,12.20
2019-01-10T20:42:26.679Z,11.97
2019-01-10T20:44:56.883Z,10.90
2019-01-10T20:47:27.195Z,13.00
2019-01-10T20:49:57.635Z,11.77
2019-01-10T20:52:28.373Z,11.70
2019-01-10T20:54:58.639Z,15.03
2019-01-10T20:57:29.117Z,12.10
2019-01-10T20:59:59.365Z,12.80
2019-01-10T21:02:29.653Z,11.87
2019-01-10T21:04:59.917Z,10.60
2019-01-10T21:07:30.330Z,12.73
2019-01-10T21:10:00.678Z,8.00
2019-01-10T21:12:31.139Z,14.00
2019-01-10T21:15:01.392Z,8.03
2019-01-10T21:17:31.708Z,12.20
2019-01-10T21:20:01.897Z,11.13
2019-01-10T21:22:32.124Z,9.70
2019-01-10T21:25:02.446Z,8.27
2019-01-10T21:27:32.251Z,6.57
2019-01-10T21:30:02.487Z,10.60
2019-01-10T21:32:33.567Z,11.90
2019-01-10T21:35:03.698Z,7.47
2019-01-10T21:37:34.064Z,7.67
2019-01-10T21:40:03.816Z,14.77
2019-01-10T21:42:34.097Z,13.93
2019-01-10T21:45:04.762Z,13.07
2019-01-10T21:47:35.212Z,9.30
2019-01-10T21:50:07.137Z,11.93
2019-01-10T21:52:37.292Z,13.67
2019-01-10T21:55:09.043Z,13.03
2019-01-10T21:57:39.656Z,12.97
2019-01-10T22:00:14.687Z,9.60
2019-01-10T22:02:45.064Z,12.80
2019-01-10T22:05:15.511Z,13.70
2019-01-10T22:07:45.993Z,12.70
2019-01-10T22:10:16.356Z,12.43
2019-01-10T22:12:47.183Z,13.10
2019-01-10T22:15:17.727Z,12.80
2019-01-10T22:17:48.033Z,11.63
2019-01-10T22:20:18.762Z,14.10
2019-01-10T22:22:49.084Z,15.77
2019-01-10T22:25:19.760Z,15.63
2019-01-10T22:27:50.188Z,10.87
2019-01-10T22:30:22.106Z,11.93
2019-01-10T22:32:52.569Z,12.57
2019-01-10T22:35:23.590Z,12.00
2019-01-10T22:37:54.000Z,9.83
2019-01-10T22:40:25.184Z,11.80
2019-01-10T22:42:55.289Z,11.90
2019-01-10T22:45:25.474Z,13.47
2019-01-10T22:47:55.659Z,13.47
2019-01-10T22:50:25.841Z,9.97
2019-01-10T22:52:55.966Z,13.87
2019-01-10T22:55:26.222Z,13.40
2019-01-10T22:57:56.427Z,9.83
2019-01-10T23:00:44.688Z,12.90
2019-01-10T23:03:15.013Z,11.77
2019-01-10T23:05:45.536Z,12.47
2019-01-10T23:08:16.076Z,7.07
2019-01-10T23:10:46.677Z,12.73
2019-01-10T23:13:17.087Z,13.20
2019-01-10T23:15:47.626Z,12.63
2019-01-10T23:18:17.987Z,13.33
2019-01-10T23:20:54.964Z,9.87
2019-01-10T23:23:25.451Z,11.63
2019-01-10T23:25:56.020Z,14.40
2019-01-10T23:28:26.632Z,9.80
2019-01-10T23:30:58.885Z,11.40
2019-01-10T23:33:29.755Z,8.10
2019-01-10T23:36:01.775Z,10.17
2019-01-10T23:38:32.240Z,8.67
2019-01-10T23:41:02.823Z,8.13
2019-01-10T23:43:33.203Z,9.17
2019-01-10T23:46:03.755Z,10.77
2019-01-10T23:48:34.122Z,10.20
2019-01-10T23:51:04.542Z,11.57
2019-01-10T23:53:34.947Z,9.40
2019-01-10T23:56:05.360Z,11.07
2019-01-10T23:58:35.910Z,11.67
